createdAt,value
2018-11-28T00:00:07.363Z,11.96
2018-11-28T00:02:33.710Z,11.95
2018-11-28T00:05:00.010Z,11.94
2018-11-28T00:07:26.310Z,11.93
2018-11-28T00:09:52.657Z,11.92
2018-11-28T00:12:18.977Z,11.90
2018-11-28T00:14:45.290Z,11.91
2018-11-28T00:17:11.592Z,11.91
2018-11-28T00:19:37.903Z,11.91
2018-11-28T00:22:04.230Z,11.90
2018-11-28T00:24:30.544Z,11.89
2018-11-28T00:26:56.849Z,11.88
2018-11-28T00:29:23.142Z,11.86
2018-11-28T00:31:49.489Z,11.86
2018-11-28T00:34:15.792Z,11.85
2018-11-28T00:36:42.110Z,11.84
2018-11-28T00:39:08.429Z,11.82
2018-11-28T00:41:34.741Z,11.81
2018-11-28T00:44:01.041Z,11.79
2018-11-28T00:46:27.369Z,11.80
2018-11-28T00:48:53.675Z,11.79
2018-11-28T00:51:19.996Z,11.79
2018-11-28T00:53:46.304Z,11.79
2018-11-28T00:56:12.677Z,11.77
2018-11-28T00:58:39.000Z,11.75
2018-11-28T01:01:05.319Z,11.74
2018-11-28T01:03:31.654Z,11.74
2018-11-28T01:05:57.967Z,11.70
2018-11-28T01:08:24.260Z,11.69
2018-11-28T01:10:50.574Z,11.67
2018-11-28T01:13:16.897Z,11.65
2018-11-28T01:15:43.185Z,11.65
2018-11-28T01:18:09.540Z,11.64
2018-11-28T01:20:35.869Z,11.63
2018-11-28T01:23:02.163Z,11.62
2018-11-28T01:25:28.455Z,11.60
2018-11-28T01:27:54.799Z,11.60
2018-11-28T01:30:21.113Z,11.58
2018-11-28T01:32:47.458Z,11.57
2018-11-28T01:35:13.792Z,11.56
2018-11-28T01:37:40.110Z,11.53
2018-11-28T01:40:06.401Z,11.52
2018-11-28T01:42:32.726Z,11.51
2018-11-28T01:44:59.038Z,11.49
2018-11-28T01:47:25.358Z,11.48
2018-11-28T01:49:51.686Z,11.48
2018-11-28T01:52:18.007Z,11.46
2018-11-28T01:54:44.372Z,11.46
2018-11-28T01:57:10.723Z,11.45
2018-11-28T01:59:37.056Z,11.44
2018-11-28T02:02:03.376Z,11.42
2018-11-28T02:04:29.671Z,11.42
2018-11-28T02:06:56.009Z,11.39
2018-11-28T02:09:22.314Z,11.41
2018-11-28T02:11:48.619Z,11.39
2018-11-28T02:14:14.933Z,11.37
2018-11-28T02:16:41.249Z,11.36
2018-11-28T02:19:07.552Z,11.35
2018-11-28T02:21:33.863Z,11.33
2018-11-28T02:24:00.195Z,11.33
2018-11-28T02:26:26.489Z,11.32
2018-11-28T02:28:52.802Z,11.32
2018-11-28T02:31:19.113Z,11.31
2018-11-28T02:33:45.443Z,11.30
2018-11-28T02:36:11.792Z,11.29
2018-11-28T02:38:38.100Z,11.29
2018-11-28T02:41:04.391Z,11.27
2018-11-28T02:43:30.707Z,11.25
2018-11-28T02:45:57.045Z,11.23
2018-11-28T02:48:23.356Z,11.22
2018-11-28T02:50:49.691Z,11.22
2018-11-28T02:53:16.021Z,11.20
2018-11-28T02:55:42.319Z,11.20
2018-11-28T02:58:08.633Z,11.16
2018-11-28T03:00:34.966Z,11.13
2018-11-28T03:03:01.290Z,11.13
2018-11-28T03:05:27.644Z,11.12
2018-11-28T03:07:53.934Z,11.09
2018-11-28T03:10:20.251Z,11.07
2018-11-28T03:12:46.579Z,11.05
2018-11-28T03:15:12.902Z,11.03
2018-11-28T03:17:39.230Z,11.01
2018-11-28T03:20:05.560Z,11.00
2018-11-28T03:22:31.870Z,10.98
2018-11-28T03:24:58.211Z,10.95
2018-11-28T03:27:24.517Z,10.95
2018-11-28T03:29:50.847Z,10.94
2018-11-28T03:32:17.159Z,10.92
2018-11-28T03:34:45.553Z,10.91
2018-11-28T03:37:09.802Z,10.90
2018-11-28T03:39:36.114Z,10.88
2018-11-28T03:42:02.418Z,10.86
2018-11-28T03:44:28.703Z,10.84
2018-11-28T03:46:55.066Z,10.82
2018-11-28T03:49:21.363Z,10.82
2018-11-28T03:51:47.709Z,10.80
2018-11-28T03:54:14.045Z,10.77
2018-11-28T03:56:40.373Z,10.75
2018-11-28T03:59:06.717Z,10.74
2018-11-28T04:01:33.053Z,10.73
2018-11-28T04:03:59.360Z,10.72
2018-11-28T04:06:25.654Z,10.70
2018-11-28T04:08:52.000Z,10.68
2018-11-28T04:11:18.302Z,10.66
2018-11-28T04:13:44.595Z,10.65
2018-11-28T04:16:10.899Z,10.63
2018-11-28T04:18:37.216Z,10.62
2018-11-28T04:21:03.536Z,10.62
2018-11-28T04:23:29.876Z,10.61
2018-11-28T04:25:56.165Z,10.60
2018-11-28T04:28:22.491Z,10.57
2018-11-28T04:30:48.876Z,10.56
2018-11-28T04:33:15.165Z,10.55
2018-11-28T04:35:41.487Z,10.53
2018-11-28T04:38:07.824Z,10.53
2018-11-28T04:40:34.156Z,10.52
2018-11-28T04:43:00.463Z,10.50
2018-11-28T04:45:26.810Z,10.49
2018-11-28T04:47:53.112Z,10.47
2018-11-28T04:50:19.432Z,10.46
2018-11-28T04:52:45.777Z,10.44
2018-11-28T04:55:12.078Z,10.43
2018-11-28T04:57:38.373Z,10.42
2018-11-28T05:00:04.692Z,10.41
2018-11-28T05:02:31.023Z,10.41
2018-11-28T05:04:57.310Z,10.38
2018-11-28T05:07:23.682Z,10.39
2018-11-28T05:09:49.999Z,10.38
2018-11-28T05:12:16.311Z,10.36
2018-11-28T05:14:42.614Z,10.35
2018-11-28T05:17:08.940Z,10.47
2018-11-28T05:19:35.285Z,10.71
2018-11-28T05:22:01.543Z,10.79
2018-11-28T05:24:27.908Z,10.77
2018-11-28T05:26:54.211Z,10.18
2018-11-28T05:29:20.524Z,9.75
2018-11-28T05:31:46.833Z,9.44
2018-11-28T05:34:13.226Z,9.26
2018-11-28T05:36:39.530Z,9.01
2018-11-28T05:39:05.863Z,8.99
2018-11-28T05:41:32.232Z,8.84
2018-11-28T05:43:58.551Z,8.78
2018-11-28T05:46:24.860Z,8.73
2018-11-28T05:48:51.190Z,8.70
2018-11-28T05:51:17.517Z,8.60
2018-11-28T05:53:43.839Z,8.52
2018-11-28T05:56:10.213Z,8.56
2018-11-28T05:58:36.538Z,8.54
2018-11-28T06:01:02.824Z,8.64
2018-11-28T06:03:29.130Z,8.70
2018-11-28T06:05:55.448Z,8.68
2018-11-28T06:08:21.767Z,9.21
2018-11-28T06:10:48.084Z,10.40
2018-11-28T06:13:14.411Z,10.77
2018-11-28T06:15:40.736Z,10.69
2018-11-28T06:18:07.036Z,10.60
2018-11-28T06:20:33.379Z,10.56
2018-11-28T06:22:59.675Z,10.55
2018-11-28T06:25:26.000Z,10.54
2018-11-28T06:27:52.319Z,10.55
2018-11-28T06:30:18.676Z,10.57
2018-11-28T06:32:51.045Z,10.56
2018-11-28T06:35:11.421Z,11.00
2018-11-28T06:37:37.723Z,11.25
2018-11-28T06:40:04.056Z,11.21
2018-11-28T06:42:30.367Z,11.11
2018-11-28T06:44:56.683Z,11.07
2018-11-28T06:47:23.023Z,11.02
2018-11-28T06:49:49.330Z,10.96
2018-11-28T06:52:15.644Z,10.86
2018-11-28T06:54:41.947Z,10.77
2018-11-28T06:57:08.321Z,10.69
2018-11-28T06:59:34.705Z,10.69
2018-11-28T07:02:01.009Z,10.72
2018-11-28T07:04:27.344Z,10.77
2018-11-28T07:06:53.729Z,10.78
2018-11-28T07:09:20.038Z,10.79
2018-11-28T07:11:46.341Z,10.82
2018-11-28T07:14:12.682Z,10.82
2018-11-28T07:16:39.023Z,10.84
2018-11-28T07:19:05.337Z,10.86
2018-11-28T07:21:31.684Z,10.87
2018-11-28T07:23:57.997Z,10.87
2018-11-28T07:26:24.320Z,10.89
2018-11-28T07:28:50.631Z,10.90
2018-11-28T07:31:16.938Z,10.90
2018-11-28T07:33:43.255Z,10.92
2018-11-28T07:36:09.611Z,10.92
2018-11-28T07:38:35.922Z,10.82
2018-11-28T07:41:02.213Z,10.80
2018-11-28T07:43:28.549Z,10.75
2018-11-28T07:45:54.854Z,10.79
2018-11-28T07:48:21.148Z,10.83
2018-11-28T07:50:47.633Z,10.85
2018-11-28T07:53:13.801Z,10.87
2018-11-28T07:55:40.139Z,10.87
2018-11-28T07:58:06.450Z,10.88
2018-11-28T08:00:32.766Z,10.88
2018-11-28T08:02:59.057Z,10.89
2018-11-28T08:05:25.429Z,10.89
2018-11-28T08:07:51.731Z,10.89
2018-11-28T08:10:18.087Z,10.90
2018-11-28T08:12:44.420Z,10.89
2018-11-28T08:15:10.753Z,10.89
2018-11-28T08:17:37.062Z,10.98
2018-11-28T08:20:03.381Z,11.02
2018-11-28T08:22:29.720Z,10.97
2018-11-28T08:24:56.023Z,10.95
2018-11-28T08:27:22.352Z,10.94
2018-11-28T08:29:48.679Z,10.94
2018-11-28T08:32:15.003Z,10.93
2018-11-28T08:34:41.459Z,10.92
2018-11-28T08:37:07.776Z,10.95
2018-11-28T08:39:34.108Z,10.95
2018-11-28T08:42:00.407Z,10.96
2018-11-28T08:44:26.730Z,10.96
2018-11-28T08:46:53.063Z,10.95
2018-11-28T08:49:19.392Z,10.95
2018-11-28T08:51:45.686Z,10.95
2018-11-28T08:54:14.369Z,10.96
2018-11-28T08:56:38.586Z,10.99
2018-11-28T08:59:04.966Z,11.01
2018-11-28T09:01:31.259Z,11.00
2018-11-28T09:03:57.618Z,10.97
2018-11-28T09:06:23.907Z,10.94
2018-11-28T09:08:50.202Z,10.93
2018-11-28T09:11:16.544Z,10.97
2018-11-28T09:13:42.870Z,11.00
2018-11-28T09:16:09.201Z,11.03
2018-11-28T09:18:35.502Z,11.06
2018-11-28T09:21:01.813Z,11.07
2018-11-28T09:23:28.137Z,11.08
2018-11-28T09:25:54.529Z,11.09
2018-11-28T09:28:20.841Z,11.10
2018-11-28T09:30:47.277Z,11.13
2018-11-28T09:33:13.670Z,11.14
2018-11-28T09:35:43.569Z,11.03
2018-11-28T09:38:08.636Z,11.15
2018-11-28T09:40:34.949Z,11.17
2018-11-28T09:43:01.272Z,11.17
2018-11-28T09:45:27.677Z,11.18
2018-11-28T09:47:54.008Z,11.16
2018-11-28T09:50:20.310Z,11.11
2018-11-28T09:52:46.626Z,11.06
2018-11-28T09:55:12.936Z,11.01
2018-11-28T09:57:39.275Z,11.09
2018-11-28T10:00:07.023Z,11.11
2018-11-28T10:02:33.324Z,11.14
2018-11-28T10:05:02.731Z,11.14
2018-11-28T10:07:25.975Z,11.13
2018-11-28T10:09:52.373Z,11.14
2018-11-28T10:12:19.784Z,11.14
2018-11-28T10:14:45.051Z,11.13
2018-11-28T10:17:11.386Z,11.17
2018-11-28T10:19:37.696Z,11.25
2018-11-28T10:22:04.018Z,11.24
2018-11-28T10:24:30.347Z,11.24
2018-11-28T10:26:56.659Z,11.21
2018-11-28T10:29:22.955Z,11.20
2018-11-28T10:31:49.282Z,11.19
2018-11-28T10:34:15.619Z,11.16
2018-11-28T10:36:41.987Z,11.12
2018-11-28T10:39:08.319Z,11.06
2018-11-28T10:41:34.693Z,11.05
2018-11-28T10:44:00.942Z,11.09
2018-11-28T10:46:27.668Z,11.12
2018-11-28T10:48:53.552Z,11.14
2018-11-28T10:51:19.870Z,11.15
2018-11-28T10:53:46.168Z,11.15
2018-11-28T10:56:12.476Z,11.26
2018-11-28T10:58:38.796Z,11.33
2018-11-28T11:01:05.116Z,11.28
2018-11-28T11:03:31.454Z,11.30
2018-11-28T11:05:57.780Z,11.30
2018-11-28T11:08:24.096Z,11.28
2018-11-28T11:10:50.424Z,11.26
2018-11-28T11:13:16.766Z,11.26
2018-11-28T11:15:43.069Z,11.25
2018-11-28T11:18:10.733Z,11.25
2018-11-28T11:20:35.742Z,11.25
2018-11-28T11:23:02.073Z,11.27
2018-11-28T11:25:28.431Z,11.25
2018-11-28T11:27:54.758Z,11.20
2018-11-28T11:30:21.096Z,11.15
2018-11-28T11:32:47.437Z,11.12
2018-11-28T11:35:13.722Z,11.15
2018-11-28T11:37:40.034Z,11.15
2018-11-28T11:40:06.373Z,11.15
2018-11-28T11:42:32.681Z,11.16
2018-11-28T11:44:59.031Z,11.18
2018-11-28T11:47:25.413Z,11.17
2018-11-28T11:49:51.732Z,11.18
2018-11-28T11:52:18.092Z,11.17
2018-11-28T11:54:44.422Z,11.18
2018-11-28T11:57:10.800Z,11.16
2018-11-28T11:59:37.126Z,11.17
2018-11-28T12:02:03.444Z,11.17
2018-11-28T12:04:29.785Z,11.16
2018-11-28T12:06:56.090Z,11.14
2018-11-28T12:09:22.419Z,11.16
2018-11-28T12:11:48.737Z,11.13
2018-11-28T12:14:15.145Z,11.10
2018-11-28T12:16:41.452Z,11.05
2018-11-28T12:19:07.847Z,11.04
2018-11-28T12:21:34.122Z,11.05
2018-11-28T12:24:00.474Z,11.06
2018-11-28T12:26:26.818Z,11.07
2018-11-28T12:28:53.135Z,11.10
2018-11-28T12:31:19.489Z,11.09
2018-11-28T12:33:45.784Z,11.09
2018-11-28T12:36:12.157Z,11.09
2018-11-28T12:38:40.892Z,11.09
2018-11-28T12:41:07.210Z,11.10
2018-11-28T12:43:33.552Z,11.09
2018-11-28T12:45:59.935Z,11.10
2018-11-28T12:48:26.253Z,11.10
2018-11-28T12:50:52.601Z,11.07
2018-11-28T12:53:18.966Z,11.07
2018-11-28T12:55:45.289Z,11.05
2018-11-28T12:58:11.604Z,11.03
2018-11-28T13:00:37.938Z,11.00
2018-11-28T13:03:04.230Z,10.95
2018-11-28T13:05:30.535Z,10.99
2018-11-28T13:07:56.892Z,10.99
2018-11-28T13:10:23.285Z,10.98
2018-11-28T13:12:49.609Z,10.97
2018-11-28T13:15:15.979Z,10.97
2018-11-28T13:17:42.279Z,10.96
2018-11-28T13:20:08.628Z,10.96
2018-11-28T13:22:34.964Z,10.95
2018-11-28T13:25:01.355Z,10.94
2018-11-28T13:27:27.692Z,10.96
2018-11-28T13:29:54.026Z,10.97
2018-11-28T13:32:20.406Z,10.95
2018-11-28T13:34:46.751Z,10.92
2018-11-28T13:37:13.113Z,10.88
2018-11-28T13:39:39.494Z,10.89
2018-11-28T13:42:05.850Z,10.89
2018-11-28T13:44:32.165Z,10.85
2018-11-28T13:46:58.498Z,10.80
2018-11-28T13:49:24.876Z,10.76
2018-11-28T13:51:51.178Z,10.74
2018-11-28T13:54:21.374Z,10.75
2018-11-28T13:57:02.993Z,10.72
2018-11-28T13:59:10.292Z,10.73
2018-11-28T14:01:36.607Z,10.72
2018-11-28T14:04:02.935Z,10.71
2018-11-28T14:06:29.287Z,10.71
2018-11-28T14:08:55.629Z,10.68
2018-11-28T14:11:21.939Z,10.69
2018-11-28T14:13:48.236Z,10.71
2018-11-28T14:16:14.560Z,10.69
2018-11-28T14:18:40.909Z,10.67
2018-11-28T14:21:07.235Z,10.66
2018-11-28T14:23:33.550Z,10.62
2018-11-28T14:25:59.889Z,10.62
2018-11-28T14:28:26.212Z,10.59
2018-11-28T14:30:52.543Z,10.55
2018-11-28T14:33:18.886Z,10.52
2018-11-28T14:35:45.309Z,10.49
2018-11-28T14:38:11.601Z,10.48
2018-11-28T14:40:37.911Z,10.46
2018-11-28T14:43:04.232Z,10.46
2018-11-28T14:45:30.554Z,10.46
2018-11-28T14:47:56.894Z,10.44
2018-11-28T14:50:23.194Z,10.46
2018-11-28T14:52:49.568Z,10.42
2018-11-28T14:55:15.846Z,10.41
2018-11-28T14:57:42.173Z,10.37
2018-11-28T15:00:08.523Z,10.36
2018-11-28T15:02:34.840Z,10.35
2018-11-28T15:05:01.173Z,10.36
2018-11-28T15:07:27.487Z,10.37
2018-11-28T15:09:53.831Z,10.35
2018-11-28T15:12:20.152Z,10.34
2018-11-28T15:14:46.478Z,10.33
2018-11-28T15:17:12.852Z,10.29
2018-11-28T15:19:39.209Z,10.24
2018-11-28T15:22:05.616Z,10.20
2018-11-28T15:24:31.906Z,10.17
2018-11-28T15:26:58.240Z,10.17
2018-11-28T15:29:24.546Z,10.18
2018-11-28T15:31:50.892Z,10.17
2018-11-28T15:34:17.220Z,10.16
2018-11-28T15:36:43.514Z,10.13
2018-11-28T15:39:09.818Z,10.14
2018-11-28T15:41:36.149Z,10.16
2018-11-28T15:44:02.467Z,10.13
2018-11-28T15:46:28.815Z,10.12
2018-11-28T15:48:55.124Z,10.10
2018-11-28T15:51:21.419Z,10.09
2018-11-28T15:53:47.719Z,10.09
2018-11-28T15:56:14.065Z,10.09
2018-11-28T15:58:40.402Z,10.10
2018-11-28T16:01:06.698Z,10.11
2018-11-28T16:03:33.037Z,10.07
2018-11-28T16:05:59.353Z,10.04
2018-11-28T16:08:25.651Z,10.01
2018-11-28T16:10:51.983Z,9.97
2018-11-28T16:13:18.290Z,9.92
2018-11-28T16:15:44.574Z,9.92
2018-11-28T16:18:10.919Z,9.93
2018-11-28T16:20:37.293Z,9.93
2018-11-28T16:23:04.788Z,9.94
2018-11-28T16:25:29.988Z,9.96
2018-11-28T16:27:56.311Z,9.94
2018-11-28T16:30:22.675Z,9.92
2018-11-28T16:32:48.977Z,9.89
2018-11-28T16:35:15.331Z,9.90
2018-11-28T16:37:41.665Z,9.92
2018-11-28T16:40:07.983Z,9.91
2018-11-28T16:42:34.277Z,9.90
2018-11-28T16:45:00.614Z,9.88
2018-11-28T16:47:26.904Z,9.88
2018-11-28T16:49:53.227Z,9.87
2018-11-28T16:52:20.262Z,9.85
2018-11-28T16:54:46.554Z,9.83
2018-11-28T16:57:12.928Z,9.79
2018-11-28T16:59:39.299Z,9.80
2018-11-28T17:02:05.590Z,9.81
2018-11-28T17:04:31.997Z,9.80
2018-11-28T17:06:58.510Z,9.78
2018-11-28T17:09:24.976Z,9.80
2018-11-28T17:11:51.354Z,9.80
2018-11-28T17:14:17.659Z,9.81
2018-11-28T17:16:43.996Z,9.82
2018-11-28T17:19:10.302Z,9.83
2018-11-28T17:21:36.600Z,9.82
2018-11-28T17:24:02.945Z,9.81
2018-11-28T17:26:29.235Z,9.78
2018-11-28T17:28:55.565Z,9.79
2018-11-28T17:31:21.893Z,9.80
2018-11-28T17:33:48.199Z,9.75
2018-11-28T17:36:14.545Z,9.71
2018-11-28T17:38:40.867Z,9.66
2018-11-28T17:41:07.228Z,9.62
2018-11-28T17:43:33.552Z,9.60
2018-11-28T17:45:59.883Z,9.57
2018-11-28T17:48:26.171Z,9.56
2018-11-28T17:50:52.494Z,9.57
2018-11-28T17:53:18.830Z,9.57
2018-11-28T17:55:45.263Z,9.59
2018-11-28T17:58:11.588Z,9.63
2018-11-28T18:00:37.898Z,9.64
2018-11-28T18:03:04.198Z,9.67
2018-11-28T18:05:30.511Z,9.68
2018-11-28T18:07:56.846Z,9.66
2018-11-28T18:10:23.170Z,9.66
2018-11-28T18:12:49.506Z,9.66
2018-11-28T18:15:15.765Z,9.67
2018-11-28T18:17:42.097Z,9.65
2018-11-28T18:20:08.430Z,9.59
2018-11-28T18:22:34.739Z,9.54
2018-11-28T18:25:01.072Z,9.51
2018-11-28T18:27:27.383Z,9.49
2018-11-28T18:29:53.704Z,9.44
2018-11-28T18:32:20.038Z,9.45
2018-11-28T18:34:46.355Z,9.45
2018-11-28T18:37:12.681Z,9.47
2018-11-28T18:39:38.997Z,9.45
2018-11-28T18:42:05.322Z,9.45
2018-11-28T18:44:31.623Z,9.45
2018-11-28T18:46:57.933Z,9.46
2018-11-28T18:49:24.255Z,9.45
2018-11-28T18:51:51.646Z,9.46
2018-11-28T18:54:17.933Z,9.47
2018-11-28T18:56:44.247Z,9.45
2018-11-28T18:59:10.579Z,9.45
2018-11-28T19:01:36.892Z,9.46
2018-11-28T19:04:03.215Z,9.43
2018-11-28T19:06:29.558Z,9.39
2018-11-28T19:08:55.866Z,9.36
2018-11-28T19:11:22.184Z,9.33
2018-11-28T19:13:48.496Z,9.35
2018-11-28T19:16:14.829Z,9.36
2018-11-28T19:18:41.159Z,9.36
2018-11-28T19:21:07.467Z,9.38
2018-11-28T19:23:33.781Z,9.38
2018-11-28T19:26:00.143Z,9.38
2018-11-28T19:28:26.449Z,9.36
2018-11-28T19:30:52.778Z,9.36
2018-11-28T19:33:19.115Z,9.37
2018-11-28T19:35:45.493Z,9.37
2018-11-28T19:38:11.811Z,9.38
2018-11-28T19:40:38.130Z,9.36
2018-11-28T19:43:04.532Z,9.37
2018-11-28T19:45:30.771Z,9.38
2018-11-28T19:47:57.072Z,9.36
2018-11-28T19:50:23.409Z,9.34
2018-11-28T19:52:49.701Z,9.28
2018-11-28T19:55:16.006Z,9.25
2018-11-28T19:57:42.352Z,9.21
2018-11-28T20:00:08.640Z,9.22
2018-11-28T20:02:34.949Z,9.25
2018-11-28T20:05:01.254Z,9.25
2018-11-28T20:07:27.551Z,9.26
2018-11-28T20:09:53.864Z,9.28
2018-11-28T20:12:20.207Z,9.27
2018-11-28T20:14:46.579Z,9.24
2018-11-28T20:17:12.859Z,9.23
2018-11-28T20:19:39.199Z,9.26
2018-11-28T20:22:05.517Z,9.27
2018-11-28T20:24:31.868Z,9.30
2018-11-28T20:26:58.260Z,9.36
2018-11-28T20:29:24.478Z,9.45
2018-11-28T20:31:50.791Z,9.46
2018-11-28T20:34:17.105Z,9.41
2018-11-28T20:36:43.414Z,9.34
2018-11-28T20:39:09.723Z,9.28
2018-11-28T20:41:36.062Z,9.22
2018-11-28T20:44:02.353Z,9.15
2018-11-28T20:46:28.646Z,9.14
2018-11-28T20:48:54.972Z,9.12
2018-11-28T20:51:21.290Z,9.13
2018-11-28T20:53:47.579Z,9.15
2018-11-28T20:56:13.869Z,9.17
2018-11-28T20:58:40.168Z,9.15
2018-11-28T21:01:06.481Z,9.16
2018-11-28T21:03:32.808Z,9.19
2018-11-28T21:05:59.173Z,9.17
2018-11-28T21:08:25.463Z,9.18
2018-11-28T21:10:51.749Z,9.18
2018-11-28T21:13:18.065Z,9.18
2018-11-28T21:15:44.370Z,9.16
2018-11-28T21:18:10.662Z,9.14
2018-11-28T21:20:36.994Z,9.14
2018-11-28T21:23:03.314Z,9.08
2018-11-28T21:25:29.637Z,9.01
2018-11-28T21:27:55.943Z,8.96
2018-11-28T21:30:22.289Z,8.88
2018-11-28T21:32:48.586Z,8.87
2018-11-28T21:35:14.905Z,8.87
2018-11-28T21:37:43.940Z,8.86
2018-11-28T21:40:10.251Z,8.88
2018-11-28T21:42:36.561Z,8.87
2018-11-28T21:45:02.908Z,8.86
2018-11-28T21:47:29.190Z,8.90
2018-11-28T21:49:55.492Z,8.95
2018-11-28T21:52:21.824Z,8.97
2018-11-28T21:54:48.134Z,8.97
2018-11-28T21:57:14.417Z,8.96
2018-11-28T21:59:40.782Z,8.94
2018-11-28T22:02:07.076Z,8.95
2018-11-28T22:04:33.391Z,8.97
2018-11-28T22:06:59.708Z,8.97
2018-11-28T22:09:26.115Z,8.93
2018-11-28T22:11:52.429Z,8.88
2018-11-28T22:14:18.726Z,8.83
2018-11-28T22:16:45.034Z,8.79
2018-11-28T22:19:11.373Z,8.77
2018-11-28T22:21:37.693Z,8.77
2018-11-28T22:24:04.022Z,8.74
2018-11-28T22:26:30.345Z,8.75
2018-11-28T22:28:56.654Z,8.73
2018-11-28T22:31:22.979Z,8.78
2018-11-28T22:33:49.289Z,8.85
2018-11-28T22:36:15.602Z,8.87
2018-11-28T22:38:41.927Z,8.86
2018-11-28T22:41:08.273Z,8.79
2018-11-28T22:43:34.660Z,8.84
2018-11-28T22:46:00.989Z,8.82
2018-11-28T22:48:27.302Z,8.80
2018-11-28T22:50:53.639Z,8.79
2018-11-28T22:53:20.017Z,8.79
2018-11-28T22:55:46.337Z,8.74
2018-11-28T22:58:12.646Z,8.70
2018-11-28T23:00:38.956Z,8.63
2018-11-28T23:03:05.266Z,8.60
2018-11-28T23:05:31.555Z,8.58
2018-11-28T23:07:57.873Z,8.58
2018-11-28T23:10:24.179Z,8.59
2018-11-28T23:12:50.485Z,8.57
2018-11-28T23:15:16.776Z,8.62
2018-11-28T23:17:43.126Z,8.62
2018-11-28T23:20:09.415Z,8.64
2018-11-28T23:22:35.716Z,8.65
2018-11-28T23:25:02.017Z,8.67
2018-11-28T23:27:28.340Z,8.64
2018-11-28T23:29:54.636Z,8.64
2018-11-28T23:32:20.957Z,8.62
2018-11-28T23:34:47.261Z,8.62
2018-11-28T23:37:13.582Z,8.63
2018-11-28T23:39:39.987Z,8.59
2018-11-28T23:42:06.296Z,8.55
2018-11-28T23:44:32.613Z,8.50
2018-11-28T23:46:58.907Z,8.45
2018-11-28T23:49:25.250Z,8.44
2018-11-28T23:51:51.551Z,8.42
2018-11-28T23:54:17.881Z,8.43
2018-11-28T23:56:44.203Z,8.42
2018-11-28T23:59:10.523Z,8.42
